Time;durP1;ratioP1;P1;durP2;ratioP2;P2;SDS_P1;SDS_P2;PMS_P1;PMS_P2;Temp;Humidity;BMP_temperature;BMP_pressure;BME280_temperature;BME280_humidity;BME280_pressure;Samples;Min_cycle;Max_cycle;Signal;HPM_P1;HPM_P2
2022/03/02 00:02:10;;;;;;;21.70;13.73;;;;;;;;;;5036231;28;20242;-62
2022/03/02 00:04:38;;;;;;;24.90;13.50;;;;;;;;;;5031269;28;20364;-61
2022/03/02 00:07:06;;;;;;;19.97;13.77;;;;;;;;;;5039271;28;20665;-62
2022/03/02 00:09:34;;;;;;;20.57;13.17;;;;;;;;;;5036786;28;20234;-60
2022/03/02 00:12:01;;;;;;;18.27;13.03;;;;;;;;;;5036344;28;20200;-61
2022/03/02 00:14:29;;;;;;;23.20;13.43;;;;;;;;;;5014854;28;20681;-62
2022/03/02 00:16:56;;;;;;;21.67;13.07;;;;;;;;;;5016860;28;20249;-61
2022/03/02 00:19:23;;;;;;;20.73;12.73;;;;;;;;;;5023293;28;20226;-61
2022/03/02 00:21:52;;;;;;;17.67;12.13;;;;;;;;;;5022321;28;20292;-63
2022/03/02 00:24:20;;;;;;;18.73;12.03;;;;;;;;;;5023911;28;20203;-63
2022/03/02 00:26:48;;;;;;;22.40;12.93;;;;;;;;;;5016114;28;20234;-63
2022/03/02 00:29:15;;;;;;;18.00;11.77;;;;;;;;;;5011945;28;20232;-63
2022/03/02 00:31:43;;;;;;;22.97;12.90;;;;;;;;;;5038817;28;20202;-61
2022/03/02 00:34:10;;;;;;;24.40;14.37;;;;;;;;;;5008302;28;20206;-62
2022/03/02 00:36:38;;;;;;;22.27;13.80;;;;;;;;;;5011982;28;20223;-62
2022/03/02 00:39:05;;;;;;;18.53;12.93;;;;;;;;;;5006402;28;20218;-64
2022/03/02 00:41:33;;;;;;;19.97;13.03;;;;;;;;;;5005290;28;20211;-63
2022/03/02 00:44:01;;;;;;;18.53;11.57;;;;;;;;;;5023212;28;20222;-61
2022/03/02 00:46:29;;;;;;;19.00;11.53;;;;;;;;;;5020274;28;20325;-61
2022/03/02 00:48:57;;;;;;;20.93;12.73;;;;;;;;;;5012701;28;20250;-63
2022/03/02 00:51:25;;;;;;;22.07;13.30;;;;;;;;;;5012460;28;20219;-63
2022/03/02 00:53:53;;;;;;;50.27;21.80;;;;;;;;;;5010509;28;20256;-63
2022/03/02 00:56:22;;;;;;;42.43;20.23;;;;;;;;;;5012332;28;20227;-63
2022/03/02 00:58:50;;;;;;;33.53;16.87;;;;;;;;;;5014754;28;20198;-62
2022/03/02 01:01:19;;;;;;;20.23;12.97;;;;;;;;;;5035513;28;20210;-61
2022/03/02 01:03:49;;;;;;;18.07;10.83;;;;;;;;;;5020041;28;21249;-61
2022/03/02 01:06:17;;;;;;;17.83;10.43;;;;;;;;;;5008468;28;20705;-61
2022/03/02 01:08:46;;;;;;;14.73;9.40;;;;;;;;;;5010276;28;20231;-60
2022/03/02 01:11:14;;;;;;;15.27;10.23;;;;;;;;;;5018996;28;20206;-64
2022/03/02 01:13:42;;;;;;;15.37;10.50;;;;;;;;;;5013550;28;20322;-63
2022/03/02 01:16:10;;;;;;;17.67;9.97;;;;;;;;;;5041082;28;20230;-61
2022/03/02 01:18:37;;;;;;;14.23;9.47;;;;;;;;;;5024034;28;21834;-62
2022/03/02 01:21:05;;;;;;;13.10;9.10;;;;;;;;;;5012290;28;20572;-62
2022/03/02 01:23:32;;;;;;;18.57;11.50;;;;;;;;;;5022285;28;20216;-64
2022/03/02 01:26:00;;;;;;;19.80;12.47;;;;;;;;;;5016918;28;20257;-62
2022/03/02 01:28:27;;;;;;;21.60;11.47;;;;;;;;;;5013202;28;20230;-62
2022/03/02 01:30:55;;;;;;;15.90;9.93;;;;;;;;;;5017207;28;20214;-64
2022/03/02 01:33:24;;;;;;;31.17;15.93;;;;;;;;;;5024858;28;20202;-63
2022/03/02 01:35:51;;;;;;;96.53;33.70;;;;;;;;;;5032930;28;20345;-63
2022/03/02 01:38:18;;;;;;;99.53;37.23;;;;;;;;;;5019940;28;20214;-61
2022/03/02 01:40:46;;;;;;;42.40;19.17;;;;;;;;;;5022786;28;20206;-62
2022/03/02 01:43:14;;;;;;;27.57;13.93;;;;;;;;;;5028286;28;20259;-63
2022/03/02 01:45:42;;;;;;;29.10;14.67;;;;;;;;;;5033392;28;20233;-63
2022/03/02 01:48:09;;;;;;;19.43;11.50;;;;;;;;;;5017919;28;20227;-62
2022/03/02 01:50:38;;;;;;;16.63;10.47;;;;;;;;;;5014825;28;20842;-62
2022/03/02 01:53:05;;;;;;;15.27;10.23;;;;;;;;;;5015308;28;20202;-61
2022/03/02 01:55:32;;;;;;;18.53;10.37;;;;;;;;;;5016498;28;22509;-61
2022/03/02 01:58:00;;;;;;;16.47;10.40;;;;;;;;;;5022148;28;20302;-63
2022/03/02 02:00:28;;;;;;;15.80;11.03;;;;;;;;;;5019412;28;20220;-61
2022/03/02 02:02:56;;;;;;;23.83;10.87;;;;;;;;;;5027162;28;20206;-61
2022/03/02 02:05:23;;;;;;;14.60;9.80;;;;;;;;;;5018598;28;20761;-63
2022/03/02 02:07:51;;;;;;;18.93;9.37;;;;;;;;;;5018330;28;20822;-61
2022/03/02 02:10:18;;;;;;;11.80;8.70;;;;;;;;;;5023185;28;20233;-62
2022/03/02 02:12:46;;;;;;;21.67;11.67;;;;;;;;;;5022301;28;20206;-62
2022/03/02 02:15:13;;;;;;;27.43;13.80;;;;;;;;;;5016192;28;20218;-63
2022/03/02 02:17:41;;;;;;;52.93;20.93;;;;;;;;;;5025147;28;20213;-63
2022/03/02 02:20:11;;;;;;;38.33;17.73;;;;;;;;;;5027818;28;20210;-62
2022/03/02 02:22:42;;;;;;;28.13;14.87;;;;;;;;;;5020151;28;20199;-62
2022/03/02 02:25:10;;;;;;;21.07;11.67;;;;;;;;;;5030112;28;20206;-62
2022/03/02 02:27:38;;;;;;;23.17;11.93;;;;;;;;;;5011749;28;20237;-62
2022/03/02 02:30:06;;;;;;;20.50;9.77;;;;;;;;;;5023824;28;21624;-62
2022/03/02 02:32:36;;;;;;;13.07;8.87;;;;;;;;;;5019029;28;21296;-62
2022/03/02 02:35:03;;;;;;;18.07;10.27;;;;;;;;;;5024904;28;20198;-62
2022/03/02 02:37:32;;;;;;;16.47;9.97;;;;;;;;;;5037267;28;20207;-61
2022/03/02 02:40:01;;;;;;;15.30;10.07;;;;;;;;;;5022857;28;20225;-61
2022/03/02 02:42:29;;;;;;;17.67;9.73;;;;;;;;;;5027388;28;20580;-61
2022/03/02 02:44:56;;;;;;;16.53;9.80;;;;;;;;;;5018616;28;20213;-62
2022/03/02 02:47:24;;;;;;;17.90;10.77;;;;;;;;;;5012728;28;20208;-62
2022/03/02 02:49:51;;;;;;;14.73;10.43;;;;;;;;;;5023449;28;20225;-62
2022/03/02 02:52:20;;;;;;;15.37;10.10;;;;;;;;;;5016881;28;20213;-61
2022/03/02 02:54:50;;;;;;;15.03;9.70;;;;;;;;;;5027377;28;20205;-62
2022/03/02 02:57:17;;;;;;;13.63;8.90;;;;;;;;;;5018854;28;20206;-62
2022/03/02 02:59:45;;;;;;;14.80;9.10;;;;;;;;;;5020663;28;20254;-63
2022/03/02 03:02:12;;;;;;;13.00;8.80;;;;;;;;;;5015268;28;20297;-63
2022/03/02 03:04:40;;;;;;;11.13;8.23;;;;;;;;;;5010619;28;20299;-62
2022/03/02 03:07:07;;;;;;;11.10;8.60;;;;;;;;;;5016907;28;20230;-61
2022/03/02 03:09:35;;;;;;;14.23;9.30;;;;;;;;;;5024200;28;22168;-64
2022/03/02 03:12:02;;;;;;;12.80;9.30;;;;;;;;;;5022918;28;20565;-62
2022/03/02 03:14:29;;;;;;;12.27;9.20;;;;;;;;;;5026324;28;20248;-62
2022/03/02 03:16:57;;;;;;;15.63;9.07;;;;;;;;;;5020883;28;20249;-62
2022/03/02 03:19:24;;;;;;;16.60;10.67;;;;;;;;;;5025847;28;20210;-63
2022/03/02 03:21:52;;;;;;;16.73;10.80;;;;;;;;;;5016447;28;20210;-62
2022/03/02 03:24:19;;;;;;;15.20;9.73;;;;;;;;;;5014989;28;20222;-63
2022/03/02 03:26:46;;;;;;;17.87;11.20;;;;;;;;;;5031531;28;20237;-63
2022/03/02 03:29:14;;;;;;;16.80;10.83;;;;;;;;;;5017982;28;20229;-63
2022/03/02 03:31:41;;;;;;;16.60;10.93;;;;;;;;;;5018614;28;20212;-62
2022/03/02 03:34:08;;;;;;;18.53;11.87;;;;;;;;;;5014600;28;20206;-62
2022/03/02 03:36:36;;;;;;;17.90;11.67;;;;;;;;;;5030652;28;20226;-63
2022/03/02 03:39:04;;;;;;;22.00;12.90;;;;;;;;;;5021339;28;20213;-62
2022/03/02 03:41:32;;;;;;;20.57;11.43;;;;;;;;;;5021392;28;20284;-63
2022/03/02 03:44:00;;;;;;;13.27;10.07;;;;;;;;;;5021702;28;20206;-64
2022/03/02 03:46:29;;;;;;;17.73;10.87;;;;;;;;;;5013126;28;20246;-62
2022/03/02 03:48:57;;;;;;;17.53;10.23;;;;;;;;;;5024163;28;20625;-61
2022/03/02 03:51:25;;;;;;;17.10;10.40;;;;;;;;;;5013884;28;20229;-63
2022/03/02 03:53:53;;;;;;;17.77;10.90;;;;;;;;;;5017260;28;20248;-63
2022/03/02 03:56:21;;;;;;;16.03;10.60;;;;;;;;;;5019655;28;20312;-62
2022/03/02 03:58:49;;;;;;;14.07;10.47;;;;;;;;;;5017405;28;20214;-63
2022/03/02 04:01:17;;;;;;;14.50;9.73;;;;;;;;;;5031260;28;20219;-63
2022/03/02 04:03:45;;;;;;;12.73;9.60;;;;;;;;;;5019054;28;20253;-62
2022/03/02 04:06:14;;;;;;;14.27;10.10;;;;;;;;;;5020170;28;20234;-62
2022/03/02 04:08:41;;;;;;;14.97;9.53;;;;;;;;;;5024970;28;20320;-63
2022/03/02 04:11:10;;;;;;;13.00;9.57;;;;;;;;;;5030394;28;20203;-63
2022/03/02 04:13:37;;;;;;;17.37;10.90;;;;;;;;;;5017326;28;20206;-63
2022/03/02 04:16:05;;;;;;;48.87;21.53;;;;;;;;;;5026683;28;20238;-61
2022/03/02 04:18:33;;;;;;;28.63;14.00;;;;;;;;;;5016671;28;20209;-62
2022/03/02 04:21:01;;;;;;;26.07;13.67;;;;;;;;;;5015210;28;20197;-63
2022/03/02 04:23:28;;;;;;;24.03;12.93;;;;;;;;;;5030669;28;20239;-63
2022/03/02 04:25:57;;;;;;;29.00;12.90;;;;;;;;;;5010150;28;20235;-61
2022/03/02 04:28:25;;;;;;;25.63;12.20;;;;;;;;;;5023771;28;20684;-61
2022/03/02 04:30:56;;;;;;;20.87;11.70;;;;;;;;;;5020215;28;20273;-61
2022/03/02 04:33:24;;;;;;;20.13;11.10;;;;;;;;;;5016784;28;20225;-63
2022/03/02 04:35:51;;;;;;;19.33;10.27;;;;;;;;;;5017518;28;20720;-63
2022/03/02 04:38:19;;;;;;;16.73;10.20;;;;;;;;;;5024591;28;20672;-63
2022/03/02 04:40:46;;;;;;;19.40;10.87;;;;;;;;;;5020808;28;20202;-62
2022/03/02 04:43:14;;;;;;;15.30;8.70;;;;;;;;;;5021921;28;20233;-62
2022/03/02 04:45:41;;;;;;;17.90;10.50;;;;;;;;;;5009425;28;20229;-62
2022/03/02 04:48:09;;;;;;;18.17;10.47;;;;;;;;;;5011125;28;20213;-63
2022/03/02 04:50:36;;;;;;;17.83;10.67;;;;;;;;;;5009854;28;21884;-61
2022/03/02 04:53:07;;;;;;;19.00;11.37;;;;;;;;;;5017107;28;20198;-64
2022/03/02 04:55:34;;;;;;;20.27;11.40;;;;;;;;;;5008923;28;20217;-62
2022/03/02 04:58:03;;;;;;;26.93;13.67;;;;;;;;;;5014100;28;20203;-61
2022/03/02 05:00:31;;;;;;;36.60;14.17;;;;;;;;;;5031061;28;20206;-64
2022/03/02 05:03:00;;;;;;;18.77;11.87;;;;;;;;;;5020543;28;20898;-63
2022/03/02 05:05:29;;;;;;;26.00;13.10;;;;;;;;;;5029946;28;20234;-63
2022/03/02 05:07:56;;;;;;;22.30;13.20;;;;;;;;;;5011103;28;20206;-63
2022/03/02 05:10:24;;;;;;;25.33;13.20;;;;;;;;;;5029028;28;20230;-61
2022/03/02 05:12:51;;;;;;;25.63;12.37;;;;;;;;;;5006098;28;20673;-64
2022/03/02 05:15:19;;;;;;;19.90;11.93;;;;;;;;;;5006300;28;20315;-62
2022/03/02 05:17:47;;;;;;;15.20;9.63;;;;;;;;;;5012730;28;20198;-63
2022/03/02 05:20:16;;;;;;;14.23;9.17;;;;;;;;;;5010683;28;20213;-63
2022/03/02 05:22:44;;;;;;;16.43;9.53;;;;;;;;;;5023576;28;20683;-61
2022/03/02 05:25:13;;;;;;;22.67;8.77;;;;;;;;;;5029194;28;20229;-63
2022/03/02 05:27:41;;;;;;;18.93;9.53;;;;;;;;;;5043575;28;20221;-62
2022/03/02 05:30:15;;;;;;;20.47;10.20;;;;;;;;;;5026351;28;20705;-63
2022/03/02 05:32:43;;;;;;;19.10;9.33;;;;;;;;;;5026765;28;20238;-63
2022/03/02 05:35:11;;;;;;;20.33;8.97;;;;;;;;;;5030422;28;20264;-61
2022/03/02 05:37:42;;;;;;;12.20;8.20;;;;;;;;;;5033284;28;20289;-62
2022/03/02 05:40:12;;;;;;;18.93;7.83;;;;;;;;;;5023985;28;20269;-63
2022/03/02 05:42:39;;;;;;;14.00;7.87;;;;;;;;;;5025278;28;20252;-63
2022/03/02 05:45:07;;;;;;;20.43;9.17;;;;;;;;;;5026551;28;20267;-61
2022/03/02 05:47:35;;;;;;;18.33;10.23;;;;;;;;;;5013724;28;20206;-63
2022/03/02 05:50:03;;;;;;;20.27;11.97;;;;;;;;;;5021235;28;20226;-63
2022/03/02 05:52:30;;;;;;;23.23;11.23;;;;;;;;;;5027364;28;20202;-61
2022/03/02 05:54:58;;;;;;;18.97;10.03;;;;;;;;;;5026745;28;20202;-62
2022/03/02 05:57:25;;;;;;;27.87;12.20;;;;;;;;;;5037060;28;20229;-63
2022/03/02 05:59:53;;;;;;;20.60;11.97;;;;;;;;;;5025220;28;20260;-61
2022/03/02 06:02:20;;;;;;;20.33;10.90;;;;;;;;;;5024336;28;20241;-61
2022/03/02 06:04:48;;;;;;;25.73;11.87;;;;;;;;;;5025090;28;20267;-62
2022/03/02 06:07:15;;;;;;;22.00;11.30;;;;;;;;;;5017029;28;20802;-62
2022/03/02 06:09:44;;;;;;;22.20;10.87;;;;;;;;;;5024965;28;20247;-63
2022/03/02 06:12:12;;;;;;;20.43;10.73;;;;;;;;;;5024226;28;20272;-61
2022/03/02 06:14:39;;;;;;;17.90;10.30;;;;;;;;;;5017178;28;20563;-63
2022/03/02 06:17:09;;;;;;;19.20;10.97;;;;;;;;;;5023379;28;20222;-64
2022/03/02 06:19:37;;;;;;;19.13;9.43;;;;;;;;;;5029317;28;20256;-61
2022/03/02 06:22:05;;;;;;;19.50;9.73;;;;;;;;;;5020839;28;20264;-61
2022/03/02 06:24:33;;;;;;;20.50;10.77;;;;;;;;;;5029914;28;20211;-62
2022/03/02 06:27:00;;;;;;;17.37;9.17;;;;;;;;;;5022200;28;20219;-60
2022/03/02 06:29:28;;;;;;;22.80;9.93;;;;;;;;;;5020564;28;20599;-64
2022/03/02 06:31:55;;;;;;;17.10;10.07;;;;;;;;;;5021850;28;20220;-62
2022/03/02 06:34:23;;;;;;;20.87;9.73;;;;;;;;;;5022756;28;20209;-63
2022/03/02 06:36:51;;;;;;;18.20;9.40;;;;;;;;;;5021652;28;20281;-62
2022/03/02 06:39:22;;;;;;;14.77;8.90;;;;;;;;;;5020117;28;20213;-62
2022/03/02 06:41:57;;;;;;;14.27;8.97;;;;;;;;;;5015184;28;20222;-62
2022/03/02 06:44:32;;;;;;;15.43;8.97;;;;;;;;;;5018350;28;20214;-63
2022/03/02 06:47:11;;;;;;;15.90;9.00;;;;;;;;;;5024786;28;20256;-63
2022/03/02 06:49:44;;;;;;;16.80;10.57;;;;;;;;;;5020602;28;20329;-63
2022/03/02 06:52:13;;;;;;;19.13;10.37;;;;;;;;;;5023895;28;20203;-62
2022/03/02 06:54:43;;;;;;;15.30;9.70;;;;;;;;;;5027012;28;20680;-63
2022/03/02 06:57:14;;;;;;;17.03;10.47;;;;;;;;;;5019967;28;20346;-61
2022/03/02 06:59:50;;;;;;;11.10;8.20;;;;;;;;;;5024344;28;20212;-63
2022/03/02 07:02:22;;;;;;;14.07;9.17;;;;;;;;;;5019754;28;20246;-63
2022/03/02 07:04:52;;;;;;;14.33;9.07;;;;;;;;;;5025445;28;20968;-63
2022/03/02 07:07:19;;;;;;;15.87;9.13;;;;;;;;;;5019402;28;20211;-63
2022/03/02 07:09:47;;;;;;;13.67;9.50;;;;;;;;;;5030638;28;20227;-62
2022/03/02 07:12:15;;;;;;;15.83;9.67;;;;;;;;;;5031691;28;20258;-63
2022/03/02 07:14:44;;;;;;;13.87;9.50;;;;;;;;;;5026132;28;20220;-63
2022/03/02 07:17:12;;;;;;;13.00;9.00;;;;;;;;;;5028660;28;20269;-61
2022/03/02 07:19:40;;;;;;;11.13;8.40;;;;;;;;;;5014288;28;20713;-62
2022/03/02 07:22:08;;;;;;;13.73;9.03;;;;;;;;;;5021688;28;20220;-63
2022/03/02 07:24:41;;;;;;;14.30;9.17;;;;;;;;;;5043059;28;20213;-63
2022/03/02 07:27:08;;;;;;;14.83;10.57;;;;;;;;;;5032267;28;20762;-64
2022/03/02 07:29:37;;;;;;;17.53;14.40;;;;;;;;;;5047597;28;20333;-61
2022/03/02 07:32:04;;;;;;;14.57;12.03;;;;;;;;;;5026644;28;20652;-61
2022/03/02 07:34:33;;;;;;;16.90;11.57;;;;;;;;;;5029248;28;20650;-63
2022/03/02 07:37:01;;;;;;;15.93;11.33;;;;;;;;;;5020699;28;20742;-64
2022/03/02 07:39:28;;;;;;;28.00;13.73;;;;;;;;;;5024080;28;20213;-63
2022/03/02 07:41:57;;;;;;;19.20;11.80;;;;;;;;;;5022302;28;20218;-63
2022/03/02 07:44:27;;;;;;;22.67;13.10;;;;;;;;;;5027007;28;20214;-63
2022/03/02 07:46:56;;;;;;;19.77;11.83;;;;;;;;;;5017976;28;20625;-63
2022/03/02 07:49:24;;;;;;;18.83;11.53;;;;;;;;;;5026758;28;20296;-61
2022/03/02 07:51:52;;;;;;;16.57;10.83;;;;;;;;;;5019681;28;20206;-64
2022/03/02 07:54:21;;;;;;;17.33;11.83;;;;;;;;;;5017971;28;20214;-64
2022/03/02 07:56:50;;;;;;;23.23;14.03;;;;;;;;;;5024332;28;20695;-63
2022/03/02 07:59:18;;;;;;;44.13;22.10;;;;;;;;;;5027562;28;20205;-62
2022/03/02 08:01:46;;;;;;;53.47;24.87;;;;;;;;;;5027798;28;20206;-62
2022/03/02 08:04:14;;;;;;;22.20;13.27;;;;;;;;;;5021006;28;20615;-63
2022/03/02 08:06:42;;;;;;;17.97;11.83;;;;;;;;;;5026642;28;20240;-63
2022/03/02 08:09:10;;;;;;;17.17;11.53;;;;;;;;;;5028104;28;20967;-62
2022/03/02 08:11:39;;;;;;;15.40;10.60;;;;;;;;;;5010556;28;20642;-63
2022/03/02 08:14:07;;;;;;;19.30;11.67;;;;;;;;;;5007140;28;20203;-62
2022/03/02 08:16:35;;;;;;;16.43;11.30;;;;;;;;;;5029209;28;20215;-63
2022/03/02 08:19:03;;;;;;;19.43;11.77;;;;;;;;;;5022340;28;20198;-62
2022/03/02 08:21:32;;;;;;;16.03;11.40;;;;;;;;;;5023572;28;20217;-61
2022/03/02 08:24:02;;;;;;;20.67;12.70;;;;;;;;;;5024459;28;20211;-62
2022/03/02 08:26:34;;;;;;;15.00;10.63;;;;;;;;;;5024452;28;20225;-62
2022/03/02 08:29:04;;;;;;;19.37;11.93;;;;;;;;;;5030381;28;20252;-62
2022/03/02 08:31:32;;;;;;;18.50;11.93;;;;;;;;;;5024913;28;20223;-63
2022/03/02 08:34:01;;;;;;;15.97;10.03;;;;;;;;;;5030670;28;20219;-62
2022/03/02 08:36:33;;;;;;;20.00;12.83;;;;;;;;;;5011526;28;20226;-62
2022/03/02 08:39:08;;;;;;;23.03;14.83;;;;;;;;;;5015750;28;20287;-62
2022/03/02 08:41:36;;;;;;;21.57;18.77;;;;;;;;;;5042771;28;20198;-63
2022/03/02 08:44:05;;;;;;;13.97;10.90;;;;;;;;;;5024903;28;20306;-62
2022/03/02 08:46:33;;;;;;;13.37;9.13;;;;;;;;;;5036674;28;20324;-64
2022/03/02 08:49:01;;;;;;;13.90;9.33;;;;;;;;;;5025156;28;20217;-64
2022/03/02 08:51:29;;;;;;;14.83;10.17;;;;;;;;;;5021424;28;20225;-63
2022/03/02 08:54:01;;;;;;;16.80;9.60;;;;;;;;;;5027378;28;20662;-63
2022/03/02 08:56:32;;;;;;;13.50;9.63;;;;;;;;;;5021368;28;20315;-62
2022/03/02 08:59:01;;;;;;;13.27;9.57;;;;;;;;;;5027985;28;20213;-62
2022/03/02 09:01:29;;;;;;;16.17;10.27;;;;;;;;;;5026697;28;20217;-62
2022/03/02 09:03:59;;;;;;;16.90;12.10;;;;;;;;;;5020370;28;20275;-63
2022/03/02 09:06:27;;;;;;;15.40;10.17;;;;;;;;;;5019369;28;20244;-61
2022/03/02 09:08:55;;;;;;;16.53;10.73;;;;;;;;;;5042787;28;20228;-62
2022/03/02 09:11:22;;;;;;;15.40;10.77;;;;;;;;;;5017283;28;20234;-63
2022/03/02 09:13:50;;;;;;;13.20;9.97;;;;;;;;;;5012173;28;20206;-63
2022/03/02 09:16:20;;;;;;;11.80;9.03;;;;;;;;;;5014289;28;20228;-63
2022/03/02 09:18:48;;;;;;;14.90;9.83;;;;;;;;;;5026595;28;20238;-62
2022/03/02 09:21:16;;;;;;;16.37;9.80;;;;;;;;;;5019816;28;20650;-61
2022/03/02 09:23:45;;;;;;;14.17;9.57;;;;;;;;;;5012678;28;20653;-63
2022/03/02 09:26:14;;;;;;;14.80;9.33;;;;;;;;;;5016605;28;20594;-63
2022/03/02 09:28:43;;;;;;;13.97;10.30;;;;;;;;;;5039805;28;20210;-63
2022/03/02 09:31:14;;;;;;;24.93;15.13;;;;;;;;;;5021745;28;20237;-63
2022/03/02 09:33:42;;;;;;;15.17;10.80;;;;;;;;;;5021148;28;20279;-61
2022/03/02 09:36:11;;;;;;;20.73;13.80;;;;;;;;;;5020486;28;20233;-62
2022/03/02 09:38:39;;;;;;;23.00;14.43;;;;;;;;;;5015802;28;20206;-61
2022/03/02 09:41:08;;;;;;;15.67;11.07;;;;;;;;;;5008873;28;20208;-63
2022/03/02 09:43:36;;;;;;;16.70;11.57;;;;;;;;;;5020231;28;20668;-64
2022/03/02 09:46:06;;;;;;;13.87;10.23;;;;;;;;;;5027670;28;20593;-62
2022/03/02 09:48:35;;;;;;;17.20;11.77;;;;;;;;;;5020602;28;20214;-62
2022/03/02 09:51:05;;;;;;;17.00;10.77;;;;;;;;;;5037405;28;20229;-60
2022/03/02 09:53:33;;;;;;;16.03;10.73;;;;;;;;;;5018134;28;20202;-63
2022/03/02 09:56:05;;;;;;;24.40;13.67;;;;;;;;;;5039540;28;20218;-62
2022/03/02 09:58:39;;;;;;;15.17;11.17;;;;;;;;;;5020898;28;20206;-64
2022/03/02 10:01:09;;;;;;;19.83;12.57;;;;;;;;;;5025785;28;20691;-62
2022/03/02 10:03:37;;;;;;;15.57;10.93;;;;;;;;;;5023323;28;20297;-63
2022/03/02 10:06:06;;;;;;;14.33;10.57;;;;;;;;;;5024625;28;20225;-63
2022/03/02 10:08:35;;;;;;;17.10;10.73;;;;;;;;;;5021601;28;20210;-63
2022/03/02 10:11:04;;;;;;;14.43;9.67;;;;;;;;;;5032871;28;20248;-63
2022/03/02 10:13:32;;;;;;;16.73;10.27;;;;;;;;;;5012334;28;20210;-64
2022/03/02 10:16:02;;;;;;;14.80;11.10;;;;;;;;;;5038536;28;20233;-62
2022/03/02 10:18:32;;;;;;;16.63;9.43;;;;;;;;;;5020761;28;20258;-63
2022/03/02 10:21:01;;;;;;;13.43;9.60;;;;;;;;;;5023421;28;20252;-63
2022/03/02 10:23:34;;;;;;;13.80;9.50;;;;;;;;;;5021926;28;20222;-63
2022/03/02 10:26:05;;;;;;;15.17;9.67;;;;;;;;;;5030057;28;20225;-63
2022/03/02 10:28:43;;;;;;;11.93;8.90;;;;;;;;;;5015836;28;20226;-63
2022/03/02 10:31:16;;;;;;;13.63;9.53;;;;;;;;;;5036698;28;20214;-63
2022/03/02 10:33:47;;;;;;;11.77;9.27;;;;;;;;;;5014872;28;20206;-63
2022/03/02 10:36:15;;;;;;;14.23;9.17;;;;;;;;;;5039446;28;20225;-60
2022/03/02 10:38:53;;;;;;;12.13;8.63;;;;;;;;;;5019967;28;20225;-64
2022/03/02 10:41:20;;;;;;;14.43;9.47;;;;;;;;;;5012606;28;20205;-63
2022/03/02 10:43:53;;;;;;;16.70;10.20;;;;;;;;;;5040772;28;20210;-63
2022/03/02 10:46:22;;;;;;;17.37;10.50;;;;;;;;;;5013647;28;20269;-63
2022/03/02 10:48:56;;;;;;;18.47;9.70;;;;;;;;;;5013111;28;20203;-63
2022/03/02 10:51:25;;;;;;;14.37;9.33;;;;;;;;;;5015194;28;20614;-61
2022/03/02 10:53:53;;;;;;;12.10;9.10;;;;;;;;;;5020384;28;20206;-63
2022/03/02 10:56:21;;;;;;;13.40;9.67;;;;;;;;;;5036182;28;20222;-63
2022/03/02 10:58:50;;;;;;;14.83;10.17;;;;;;;;;;5021994;28;20214;-64
2022/03/02 11:01:18;;;;;;;13.77;9.50;;;;;;;;;;5022100;28;20224;-63
2022/03/02 11:03:46;;;;;;;12.47;9.40;;;;;;;;;;5020901;28;20206;-63
2022/03/02 11:06:14;;;;;;;12.30;9.23;;;;;;;;;;5024494;28;20230;-62
2022/03/02 11:08:45;;;;;;;11.33;9.20;;;;;;;;;;5024888;28;20217;-63
2022/03/02 11:11:13;;;;;;;11.03;8.87;;;;;;;;;;5028722;28;20601;-63
2022/03/02 11:13:41;;;;;;;11.37;8.77;;;;;;;;;;5025528;28;20967;-63
2022/03/02 11:16:08;;;;;;;10.63;8.13;;;;;;;;;;5021287;28;20280;-62
2022/03/02 11:18:50;;;;;;;11.33;8.27;;;;;;;;;;5033437;28;20202;-64
2022/03/02 11:21:24;;;;;;;12.80;8.37;;;;;;;;;;5022650;28;20605;-63
2022/03/02 11:23:53;;;;;;;11.90;8.77;;;;;;;;;;5015994;28;20669;-62
2022/03/02 11:26:26;;;;;;;13.07;8.37;;;;;;;;;;5023046;28;20231;-63
2022/03/02 11:28:54;;;;;;;14.60;8.07;;;;;;;;;;5019732;28;20214;-62
2022/03/02 11:31:30;;;;;;;10.07;7.77;;;;;;;;;;5014502;28;20218;-63
2022/03/02 11:34:17;;;;;;;10.40;7.17;;;;;;;;;;5031992;28;20202;-63
2022/03/02 11:37:05;;;;;;;11.87;7.47;;;;;;;;;;5013709;28;20234;-62
2022/03/02 11:39:33;;;;;;;10.80;7.30;;;;;;;;;;5008185;28;20734;-63
2022/03/02 11:42:03;;;;;;;10.40;7.70;;;;;;;;;;5013737;28;20213;-62
2022/03/02 11:44:35;;;;;;;11.33;8.67;;;;;;;;;;5017439;28;20214;-61
2022/03/02 11:47:10;;;;;;;10.57;7.40;;;;;;;;;;5011568;28;20230;-62
2022/03/02 11:49:41;;;;;;;10.33;8.00;;;;;;;;;;5011959;28;20300;-63
2022/03/02 11:52:10;;;;;;;9.03;7.53;;;;;;;;;;5005118;28;20292;-63
2022/03/02 11:54:48;;;;;;;12.10;8.43;;;;;;;;;;5009264;28;20209;-62
2022/03/02 11:57:17;;;;;;;10.97;8.23;;;;;;;;;;5015037;28;20383;-62
2022/03/02 11:59:46;;;;;;;10.47;7.83;;;;;;;;;;5022061;28;20202;-62
2022/03/02 12:02:15;;;;;;;10.53;7.87;;;;;;;;;;5018404;28;20215;-63
2022/03/02 12:05:05;;;;;;;10.13;7.30;;;;;;;;;;5022580;28;20202;-62
2022/03/02 12:07:40;;;;;;;8.70;7.17;;;;;;;;;;5019486;28;20202;-63
2022/03/02 12:10:25;;;;;;;10.53;7.93;;;;;;;;;;5027567;28;20217;-63
2022/03/02 12:12:53;;;;;;;11.77;7.73;;;;;;;;;;5024166;28;20240;-62
2022/03/02 12:15:27;;;;;;;11.23;8.10;;;;;;;;;;5027423;28;20225;-63
2022/03/02 12:18:07;;;;;;;10.37;8.17;;;;;;;;;;5028148;28;20198;-63
2022/03/02 12:20:43;;;;;;;10.33;7.80;;;;;;;;;;5012656;28;20214;-63
2022/03/02 12:23:12;;;;;;;9.63;7.77;;;;;;;;;;5025518;28;20203;-61
2022/03/02 12:25:44;;;;;;;10.73;8.20;;;;;;;;;;5025152;28;20233;-63
2022/03/02 12:28:15;;;;;;;9.73;7.80;;;;;;;;;;5027421;28;20206;-62
2022/03/02 12:30:43;;;;;;;9.13;7.67;;;;;;;;;;5017857;28;20198;-63
2022/03/02 12:33:10;;;;;;;10.37;7.77;;;;;;;;;;5022699;28;20216;-62
2022/03/02 12:35:38;;;;;;;11.67;8.23;;;;;;;;;;5024191;28;20288;-63
2022/03/02 12:38:11;;;;;;;9.77;7.30;;;;;;;;;;5023990;28;20211;-62
2022/03/02 12:40:42;;;;;;;9.43;6.50;;;;;;;;;;5029087;28;20650;-63
2022/03/02 12:43:10;;;;;;;11.50;7.40;;;;;;;;;;5037726;28;20207;-61
2022/03/02 12:45:42;;;;;;;11.37;7.13;;;;;;;;;;5025613;28;20667;-63
2022/03/02 12:48:11;;;;;;;7.80;5.97;;;;;;;;;;5028591;28;20206;-63
2022/03/02 12:50:38;;;;;;;10.03;6.77;;;;;;;;;;5018242;28;20235;-63
2022/03/02 12:53:06;;;;;;;9.63;6.30;;;;;;;;;;5023050;28;20253;-61
2022/03/02 12:55:33;;;;;;;7.60;6.13;;;;;;;;;;5025433;28;20222;-64
2022/03/02 12:58:00;;;;;;;8.33;6.57;;;;;;;;;;5020982;28;20870;-61
2022/03/02 13:00:28;;;;;;;8.80;6.23;;;;;;;;;;5015501;28;20214;-63
2022/03/02 13:02:57;;;;;;;9.33;6.57;;;;;;;;;;5019829;28;20206;-63
2022/03/02 13:05:40;;;;;;;8.03;6.33;;;;;;;;;;5022111;28;20739;-63
2022/03/02 13:08:15;;;;;;;6.97;5.93;;;;;;;;;;5028086;28;20726;-63
2022/03/02 13:10:44;;;;;;;8.73;6.47;;;;;;;;;;5021583;28;20205;-64
2022/03/02 13:13:11;;;;;;;7.83;6.03;;;;;;;;;;5017186;28;20210;-63
2022/03/02 13:15:40;;;;;;;8.23;6.27;;;;;;;;;;5022344;28;20226;-62
2022/03/02 13:18:11;;;;;;;8.57;6.87;;;;;;;;;;5011850;28;20207;-61
2022/03/02 13:20:42;;;;;;;12.23;6.77;;;;;;;;;;5014661;28;20226;-63
2022/03/02 13:23:23;;;;;;;7.73;6.60;;;;;;;;;;5024023;28;20202;-62
2022/03/02 13:25:59;;;;;;;8.10;6.03;;;;;;;;;;5016419;28;20253;-62
2022/03/02 13:28:28;;;;;;;10.17;6.83;;;;;;;;;;5037123;28;20232;-63
2022/03/02 13:31:08;;;;;;;8.03;6.53;;;;;;;;;;5020751;28;20202;-63
2022/03/02 13:34:00;;;;;;;9.40;7.07;;;;;;;;;;5015855;28;20227;-62
2022/03/02 13:36:38;;;;;;;8.40;6.93;;;;;;;;;;5007087;28;20218;-63
2022/03/02 13:39:13;;;;;;;8.90;7.00;;;;;;;;;;5026456;28;20768;-63
2022/03/02 13:41:40;;;;;;;9.23;7.03;;;;;;;;;;5025126;28;20208;-63
2022/03/02 13:44:23;;;;;;;8.80;7.37;;;;;;;;;;5028093;28;20249;-63
2022/03/02 13:47:13;;;;;;;10.60;6.90;;;;;;;;;;5027968;28;20225;-63
2022/03/02 13:49:50;;;;;;;8.60;6.97;;;;;;;;;;5021719;28;20217;-63
2022/03/02 13:52:27;;;;;;;9.87;7.40;;;;;;;;;;5026918;28;20727;-63
2022/03/02 13:54:55;;;;;;;12.57;9.30;;;;;;;;;;5022990;28;20206;-64
2022/03/02 13:57:24;;;;;;;14.03;9.57;;;;;;;;;;5023047;28;20202;-63
2022/03/02 14:00:10;;;;;;;9.70;7.63;;;;;;;;;;5029848;28;20202;-64
2022/03/02 14:02:37;;;;;;;10.80;8.23;;;;;;;;;;5019105;28;20209;-63
2022/03/02 14:05:06;;;;;;;11.20;7.47;;;;;;;;;;5025423;28;20206;-63
2022/03/02 14:07:37;;;;;;;12.93;8.37;;;;;;;;;;5026241;28;20220;-63
2022/03/02 14:10:09;;;;;;;12.10;8.90;;;;;;;;;;5028624;28;20204;-62
2022/03/02 14:12:48;;;;;;;11.37;8.70;;;;;;;;;;5045806;28;20221;-62
2022/03/02 14:15:16;;;;;;;12.33;8.87;;;;;;;;;;5037545;28;20226;-63
2022/03/02 14:17:47;;;;;;;13.03;9.00;;;;;;;;;;5029490;28;20280;-64
2022/03/02 14:20:15;;;;;;;10.97;8.40;;;;;;;;;;5030346;28;20202;-63
2022/03/02 14:22:44;;;;;;;14.10;9.37;;;;;;;;;;5031219;28;20214;-62
2022/03/02 14:25:14;;;;;;;13.03;8.73;;;;;;;;;;5031345;28;20198;-63
2022/03/02 14:27:42;;;;;;;10.83;8.80;;;;;;;;;;5026683;28;20262;-63
2022/03/02 14:30:12;;;;;;;13.40;8.23;;;;;;;;;;5028028;28;20633;-61
2022/03/02 14:32:41;;;;;;;13.50;9.00;;;;;;;;;;5025166;28;20230;-63
2022/03/02 14:35:13;;;;;;;12.00;9.13;;;;;;;;;;5026581;28;20205;-63
2022/03/02 14:37:44;;;;;;;14.37;9.07;;;;;;;;;;5025631;28;20221;-62